Time;durP1;ratioP1;P1;durP2;ratioP2;P2;SDS_P1;SDS_P2;PMS_P1;PMS_P2;Temp;Humidity;BMP_temperature;BMP_pressure;BME280_temperature;BME280_humidity;BME280_pressure;Samples;Min_cycle;Max_cycle;Signal;HPM_P1;HPM_P2
2023/01/09 00:04:11;;;;;;;5.00;3.10;;;9.30;99.90;;;;;;10452226;28;20690;-68
2023/01/09 00:09:11;;;;;;;4.33;3.13;;;9.30;99.90;;;;;;10485797;28;20230;-69
2023/01/09 00:14:13;;;;;;;4.57;3.73;;;9.20;99.90;;;;;;10478769;28;20691;-68
2023/01/09 00:19:14;;;;;;;4.63;3.83;;;9.20;99.90;;;;;;10450827;28;20237;-69
2023/01/09 00:24:14;;;;;;;5.63;4.00;;;9.10;99.90;;;;;;10460252;28;20596;-68
2023/01/09 00:29:15;;;;;;;5.83;4.37;;;9.10;99.90;;;;;;10477534;28;20238;-68
2023/01/09 00:34:15;;;;;;;4.70;4.30;;;9.00;99.90;;;;;;10456984;28;20223;-68
2023/01/09 00:39:16;;;;;;;4.40;4.00;;;9.00;99.90;;;;;;10476788;28;20230;-69
2023/01/09 00:44:27;;;;;;;4.70;3.83;;;8.90;99.90;;;;;;10468625;28;20435;-71
2023/01/09 00:49:30;;;;;;;5.03;4.50;;;8.90;99.90;;;;;;10476423;28;20235;-69
2023/01/09 00:54:33;;;;;;;5.83;4.73;;;8.90;99.90;;;;;;10471721;28;20252;-68
2023/01/09 00:59:34;;;;;;;5.77;5.17;;;8.90;99.90;;;;;;10476566;28;20705;-68
2023/01/09 01:09:53;;;;;;;5.37;3.80;;;8.80;99.90;;;;;;10475026;28;20234;-67
2023/01/09 01:14:54;;;;;;;4.37;3.90;;;8.80;99.90;;;;;;10482940;28;20220;-69
2023/01/09 01:19:55;;;;;;;8.20;4.47;;;8.80;99.90;;;;;;10502138;28;20768;-70
2023/01/09 01:24:55;;;;;;;4.57;4.17;;;8.80;99.90;;;;;;10480344;28;20739;-69
2023/01/09 01:29:56;;;;;;;5.83;4.30;;;8.80;99.90;;;;;;10479176;28;20271;-68
2023/01/09 01:34:56;;;;;;;5.10;4.27;;;8.80;99.90;;;;;;10474751;28;20818;-68
2023/01/09 01:39:57;;;;;;;4.50;3.50;;;8.80;99.90;;;;;;10467240;28;20779;-68
2023/01/09 01:44:59;;;;;;;4.27;3.83;;;8.80;99.90;;;;;;10455786;28;20795;-69
2023/01/09 01:50:03;;;;;;;4.17;3.77;;;8.90;99.90;;;;;;10456429;28;20206;-70
2023/01/09 01:55:07;;;;;;;4.47;3.77;;;9.00;99.90;;;;;;10447713;28;20234;-68
2023/01/09 02:00:11;;;;;;;4.30;4.00;;;8.90;99.90;;;;;;10454677;28;20227;-73
2023/01/09 02:05:11;;;;;;;5.60;5.10;;;8.90;99.90;;;;;;10463925;28;20300;-73
2023/01/09 02:10:13;;;;;;;5.70;5.20;;;9.00;99.90;;;;;;10467000;28;20721;-72
2023/01/09 02:15:15;;;;;;;4.10;3.77;;;9.00;99.90;;;;;;10473250;28;20187;-73
2023/01/09 02:20:44;;;;;;;3.63;2.57;;;9.00;99.90;;;;;;10467074;28;20210;-72
2023/01/09 02:26:22;;;;;;;2.43;2.23;;;9.00;99.90;;;;;;10442125;28;20262;-77
2023/01/09 02:31:44;;;;;;;3.00;1.70;;;8.90;99.90;;;;;;10457017;28;20234;-77
2023/01/09 02:37:11;;;;;;;4.13;2.30;;;8.90;99.90;;;;;;10474356;28;20284;-79
2023/01/09 02:42:16;;;;;;;2.20;2.00;;;9.00;99.90;;;;;;10467864;28;20675;-79
2023/01/09 02:47:17;;;;;;;2.50;2.03;;;9.00;99.90;;;;;;10473642;28;20225;-76
2023/01/09 02:52:46;;;;;;;3.77;2.60;;;8.90;99.90;;;;;;10450801;28;20316;-79
2023/01/09 02:58:06;;;;;;;1.93;1.50;;;8.80;99.90;;;;;;10457968;28;20239;-75
2023/01/09 03:03:40;;;;;;;1.73;1.43;;;8.60;99.90;;;;;;10456122;28;20260;-76
2023/01/09 03:08:50;;;;;;;2.03;1.27;;;8.50;99.90;;;;;;10453054;28;20720;-75
2023/01/09 03:13:54;;;;;;;3.23;1.37;;;8.40;99.90;;;;;;10453514;28;20623;-76
2023/01/09 03:18:55;;;;;;;1.30;1.20;;;8.40;99.90;;;;;;10465309;28;20843;-76
2023/01/09 03:24:00;;;;;;;1.50;1.40;;;8.50;99.90;;;;;;10487350;28;20233;-75
2023/01/09 03:29:01;;;;;;;1.30;1.17;;;8.50;99.90;;;;;;10454998;28;20233;-77
2023/01/09 03:34:02;;;;;;;2.40;1.60;;;8.60;99.90;;;;;;10483000;28;20217;-71
2023/01/09 03:39:02;;;;;;;1.63;1.40;;;8.60;99.90;;;;;;10485192;28;20321;-72
2023/01/09 03:44:03;;;;;;;3.33;2.10;;;8.70;99.90;;;;;;10481172;28;20231;-74
2023/01/09 03:49:04;;;;;;;3.40;2.00;;;8.70;99.90;;;;;;10473042;28;20239;-76
2023/01/09 03:54:04;;;;;;;2.63;2.43;;;8.80;99.90;;;;;;10489006;28;20583;-75
2023/01/09 03:59:05;;;;;;;2.70;2.50;;;8.80;99.90;;;;;;10472903;28;20627;-78
2023/01/09 04:04:06;;;;;;;3.17;2.00;;;8.80;99.90;;;;;;10463169;28;20618;-76
2023/01/09 04:09:06;;;;;;;1.20;1.00;;;8.80;99.90;;;;;;10479824;28;20233;-78
2023/01/09 04:14:07;;;;;;;1.27;0.70;;;8.70;99.90;;;;;;10462171;28;20227;-74
2023/01/09 04:19:07;;;;;;;1.23;0.70;;;8.70;99.90;;;;;;10471879;28;20285;-72
2023/01/09 04:24:08;;;;;;;1.77;1.17;;;8.70;99.90;;;;;;10460434;28;20221;-72
2023/01/09 04:29:08;;;;;;;0.77;0.77;;;8.70;99.90;;;;;;10470617;28;20235;-72
2023/01/09 04:34:09;;;;;;;0.60;0.60;;;8.70;99.90;;;;;;10472305;28;20289;-75
2023/01/09 04:39:10;;;;;;;1.10;0.47;;;8.70;99.90;;;;;;10482756;28;20233;-74
2023/01/09 04:44:10;;;;;;;0.67;0.37;;;8.70;99.90;;;;;;10470763;28;20253;-75
2023/01/09 04:49:11;;;;;;;2.17;0.37;;;8.60;99.90;;;;;;10476071;28;20256;-73
2023/01/09 04:54:11;;;;;;;0.73;0.37;;;8.50;99.90;;;;;;10478071;28;20252;-74
2023/01/09 04:59:12;;;;;;;1.70;0.50;;;8.50;99.90;;;;;;10476519;28;20631;-78
2023/01/09 05:04:14;;;;;;;3.00;1.30;;;8.50;99.90;;;;;;10470381;28;20423;-75
2023/01/09 05:09:14;;;;;;;1.63;0.40;;;8.40;99.90;;;;;;10474074;28;20224;-74
2023/01/09 05:14:15;;;;;;;1.30;0.33;;;8.30;99.90;;;;;;10480993;28;20275;-72
2023/01/09 05:19:16;;;;;;;2.73;1.20;;;8.30;99.90;;;;;;10470376;28;20230;-74
2023/01/09 05:24:16;;;;;;;1.47;1.17;;;8.20;99.90;;;;;;10486834;28;20213;-72
2023/01/09 05:29:17;;;;;;;1.97;0.60;;;8.20;99.90;;;;;;10467893;28;20230;-70
2023/01/09 05:34:18;;;;;;;1.07;0.87;;;8.20;99.90;;;;;;10448964;28;20248;-73
2023/01/09 05:39:18;;;;;;;2.37;0.63;;;8.00;99.90;;;;;;10473842;28;20233;-72
2023/01/09 05:44:19;;;;;;;0.87;0.53;;;8.00;99.90;;;;;;10469624;28;20222;-73
2023/01/09 05:49:19;;;;;;;2.20;1.20;;;8.00;99.90;;;;;;10481333;28;20223;-73
2023/01/09 05:54:20;;;;;;;3.20;1.17;;;8.00;99.90;;;;;;10469635;28;20603;-73
2023/01/09 05:59:21;;;;;;;2.17;0.73;;;8.00;99.90;;;;;;10480174;28;20221;-74
2023/01/09 06:04:21;;;;;;;0.53;0.50;;;7.80;99.90;;;;;;10474338;28;20216;-73
2023/01/09 06:09:22;;;;;;;1.97;0.87;;;7.70;99.90;;;;;;10466984;28;20234;-70
2023/01/09 06:14:23;;;;;;;2.50;0.90;;;7.50;99.90;;;;;;10471316;28;20308;-71
2023/01/09 06:19:23;;;;;;;2.30;0.80;;;7.40;99.90;;;;;;10475000;28;20286;-73
2023/01/09 06:24:24;;;;;;;2.80;1.03;;;7.40;99.90;;;;;;10467888;28;20223;-73
2023/01/09 06:29:30;;;;;;;3.90;1.10;;;7.50;99.90;;;;;;10472331;28;20223;-72
2023/01/09 06:34:30;;;;;;;2.83;0.70;;;7.70;99.90;;;;;;10457946;28;20924;-72
2023/01/09 06:39:31;;;;;;;1.33;0.63;;;7.80;99.90;;;;;;10467705;28;20227;-72
2023/01/09 06:44:32;;;;;;;3.93;0.90;;;7.70;99.90;;;;;;10447505;28;20223;-73
2023/01/09 06:49:32;;;;;;;2.37;0.70;;;7.60;99.90;;;;;;10476199;28;20234;-73
2023/01/09 06:54:36;;;;;;;1.70;0.80;;;7.60;99.90;;;;;;10451257;28;20235;-72
2023/01/09 06:59:37;;;;;;;4.03;0.80;;;7.70;99.90;;;;;;10462680;28;20225;-72
2023/01/09 07:04:37;;;;;;;2.53;0.87;;;7.80;99.90;;;;;;10461960;28;20220;-72
2023/01/09 07:09:38;;;;;;;4.70;1.00;;;7.90;99.90;;;;;;10468501;28;20243;-72
2023/01/09 07:14:38;;;;;;;4.53;0.90;;;7.90;99.90;;;;;;10469199;28;20226;-72
2023/01/09 07:19:39;;;;;;;4.57;0.80;;;7.90;99.90;;;;;;10457632;28;20215;-73
2023/01/09 07:24:40;;;;;;;3.83;0.90;;;7.90;99.90;;;;;;10477639;28;20228;-73
2023/01/09 07:29:40;;;;;;;2.13;0.90;;;7.80;99.90;;;;;;10465125;28;20246;-72
2023/01/09 07:34:41;;;;;;;4.17;1.20;;;7.70;99.90;;;;;;10472782;28;20239;-73
2023/01/09 07:39:42;;;;;;;3.53;0.87;;;7.60;99.90;;;;;;10469502;28;20234;-73
2023/01/09 07:44:43;;;;;;;2.17;0.80;;;7.60;99.90;;;;;;10468767;28;20710;-73
2023/01/09 07:49:43;;;;;;;4.90;1.00;;;7.70;99.90;;;;;;10474895;28;20613;-73
2023/01/09 07:54:44;;;;;;;3.30;1.27;;;7.90;99.90;;;;;;10476107;28;20246;-73
2023/01/09 07:59:45;;;;;;;4.23;1.10;;;8.00;99.90;;;;;;10461671;28;20220;-72
2023/01/09 08:04:45;;;;;;;3.03;1.00;;;8.10;99.90;;;;;;10467017;28;20781;-73
2023/01/09 08:09:46;;;;;;;5.03;1.10;;;8.20;99.90;;;;;;10454526;28;20235;-73
2023/01/09 08:14:46;;;;;;;4.23;1.00;;;8.40;99.90;;;;;;10461146;28;20236;-72
2023/01/09 08:19:47;;;;;;;4.53;0.83;;;8.50;99.90;;;;;;10452064;28;20253;-71
2023/01/09 08:24:47;;;;;;;4.07;1.47;;;8.60;99.90;;;;;;10458198;28;20300;-72
2023/01/09 08:29:48;;;;;;;5.73;1.27;;;8.80;99.90;;;;;;10472129;28;20258;-73
2023/01/09 08:34:49;;;;;;;5.80;1.07;;;8.90;99.90;;;;;;10475511;28;20859;-73
2023/01/09 08:39:49;;;;;;;3.20;1.03;;;8.80;99.90;;;;;;10477651;28;20277;-73
2023/01/09 08:50:09;;;;;;;2.47;0.70;;;9.00;99.90;;;;;;10470125;28;20211;-72
2023/01/09 08:55:10;;;;;;;3.80;0.73;;;9.10;99.90;;;;;;10470338;28;20198;-72
2023/01/09 09:00:11;;;;;;;4.97;0.70;;;9.00;99.90;;;;;;10478042;28;20296;-72
2023/01/09 09:05:11;;;;;;;4.10;1.20;;;8.90;99.90;;;;;;10469846;28;20188;-72
2023/01/09 09:10:18;;;;;;;4.13;1.07;;;8.90;99.90;;;;;;10476562;28;20177;-72
2023/01/09 09:15:23;;;;;;;3.57;0.93;;;8.90;99.90;;;;;;10471520;28;20187;-73
2023/01/09 09:20:26;;;;;;;3.00;1.03;;;8.80;99.90;;;;;;10478896;28;20190;-71
2023/01/09 09:25:27;;;;;;;4.73;1.17;;;8.80;99.90;;;;;;10475592;28;20277;-72
2023/01/09 09:30:28;;;;;;;5.07;1.30;;;9.00;99.90;;;;;;10468162;28;20238;-72
2023/01/09 09:35:31;;;;;;;4.60;1.20;;;9.30;99.90;;;;;;10466990;28;20240;-74
2023/01/09 09:40:58;;;;;;;6.83;1.10;;;9.30;99.90;;;;;;10487868;28;20249;-72
2023/01/09 09:46:04;;;;;;;6.27;1.13;;;9.20;99.90;;;;;;10449981;28;20230;-72
2023/01/09 09:51:13;;;;;;;4.23;1.03;;;9.10;99.90;;;;;;10466382;28;20307;-73
2023/01/09 09:56:20;;;;;;;3.90;1.00;;;9.10;99.90;;;;;;10475452;28;20239;-73
2023/01/09 10:01:27;;;;;;;5.10;1.50;;;9.20;99.90;;;;;;10476504;28;20269;-72
2023/01/09 10:06:41;;;;;;;7.30;1.50;;;9.30;99.90;;;;;;10479119;28;20253;-72
2023/01/09 10:11:57;;;;;;;7.13;1.43;;;9.60;99.90;;;;;;10461461;28;20215;-73
2023/01/09 10:17:21;;;;;;;4.37;1.33;;;10.30;99.90;;;;;;10467702;28;20760;-73
2023/01/09 10:22:55;;;;;;;4.47;1.20;;;9.90;99.90;;;;;;10473990;28;20222;-74
2023/01/09 10:28:00;;;;;;;2.73;1.00;;;9.50;99.90;;;;;;10472816;28;20238;-73
2023/01/09 10:33:32;;;;;;;2.87;0.93;;;9.50;99.90;;;;;;10474830;28;20242;-73
2023/01/09 10:38:40;;;;;;;2.60;1.00;;;9.60;99.90;;;;;;10474575;28;20234;-72
2023/01/09 10:43:46;;;;;;;2.00;0.70;;;9.40;99.90;;;;;;10471485;28;20194;-72
2023/01/09 10:48:54;;;;;;;1.00;0.60;;;9.50;99.90;;;;;;10469890;28;20303;-73
2023/01/09 10:53:55;;;;;;;1.20;0.60;;;9.40;99.90;;;;;;10473470;28;20222;-74
2023/01/09 10:58:56;;;;;;;3.70;0.80;;;9.40;99.90;;;;;;10477141;28;20222;-72
2023/01/09 11:04:01;;;;;;;2.03;0.80;;;9.30;99.90;;;;;;10465774;28;20239;-73
2023/01/09 11:09:03;;;;;;;2.70;0.73;;;9.20;99.90;;;;;;10465733;28;20242;-72
2023/01/09 11:14:12;;;;;;;2.40;0.60;;;9.30;99.90;;;;;;10480138;28;20217;-74
2023/01/09 11:19:14;;;;;;;1.60;1.03;;;9.30;99.90;;;;;;10479446;28;20219;-73
2023/01/09 11:24:17;;;;;;;1.60;0.70;;;9.30;99.90;;;;;;10473264;28;20234;-73
2023/01/09 11:29:20;;;;;;;3.27;0.80;;;9.30;99.90;;;;;;10473696;28;20235;-72
2023/01/09 11:34:24;;;;;;;2.67;0.80;;;9.30;99.90;;;;;;10452454;28;20218;-72
2023/01/09 11:39:29;;;;;;;2.10;0.70;;;9.20;99.90;;;;;;10494297;28;20221;-72
2023/01/09 11:44:31;;;;;;;1.87;0.60;;;9.10;99.90;;;;;;10473354;28;20716;-73
2023/01/09 11:49:32;;;;;;;2.77;0.67;;;9.00;99.90;;;;;;10458932;28;20297;-74
2023/01/09 11:54:36;;;;;;;2.40;0.60;;;9.00;99.90;;;;;;10480710;28;20238;-72
2023/01/09 11:59:37;;;;;;;2.00;0.60;;;9.00;99.90;;;;;;10476177;28;20233;-73
2023/01/09 12:05:01;;;;;;;2.23;0.70;;;9.10;99.90;;;;;;10481590;28;20321;-73
2023/01/09 12:10:02;;;;;;;2.33;0.60;;;9.20;99.90;;;;;;10479813;28;20225;-73
2023/01/09 12:15:26;;;;;;;2.90;1.33;;;9.10;99.90;;;;;;10480407;28;20222;-73
2023/01/09 12:20:54;;;;;;;1.20;0.73;;;9.20;99.90;;;;;;10474813;28;20245;-73
2023/01/09 12:26:16;;;;;;;1.67;0.90;;;9.20;99.90;;;;;;10455307;28;20238;-73
2023/01/09 12:31:43;;;;;;;2.30;0.70;;;9.20;99.90;;;;;;10472820;28;20237;-73
2023/01/09 12:37:03;;;;;;;3.00;1.23;;;9.20;99.90;;;;;;10474484;28;20222;-73
2023/01/09 12:42:18;;;;;;;2.93;0.70;;;9.30;99.90;;;;;;10469436;28;20241;-72
2023/01/09 12:47:43;;;;;;;1.47;0.80;;;9.40;99.90;;;;;;10461007;28;20761;-74
2023/01/09 12:53:09;;;;;;;3.63;0.87;;;9.50;99.90;;;;;;10481406;28;20220;-73
2023/01/09 12:58:45;;;;;;;2.60;1.03;;;9.50;99.90;;;;;;10470820;28;20309;-74
2023/01/09 13:03:49;;;;;;;2.33;0.97;;;9.60;99.90;;;;;;10454427;28;20383;-73
2023/01/09 13:09:25;;;;;;;0.77;0.50;;;9.80;99.90;;;;;;10485389;28;20237;-73
2023/01/09 13:14:43;;;;;;;1.20;0.60;;;9.70;99.90;;;;;;10472014;28;20721;-73
2023/01/09 13:19:45;;;;;;;3.37;0.70;;;9.60;99.90;;;;;;10454619;28;20246;-73
2023/01/09 13:25:04;;;;;;;3.97;1.07;;;9.50;99.90;;;;;;10456241;28;20221;-73
2023/01/09 13:30:19;;;;;;;2.70;0.87;;;9.60;99.90;;;;;;10457374;28;20246;-73
2023/01/09 13:35:20;;;;;;;2.83;1.20;;;9.60;99.90;;;;;;10469074;28;20673;-72
2023/01/09 13:40:20;;;;;;;4.13;0.73;;;9.50;99.90;;;;;;10476537;28;20188;-73
2023/01/09 13:45:24;;;;;;;2.03;0.80;;;9.30;99.90;;;;;;10460966;28;20211;-72
2023/01/09 13:50:26;;;;;;;1.47;0.80;;;9.20;99.90;;;;;;10478006;28;20226;-72
2023/01/09 13:55:28;;;;;;;2.87;0.90;;;9.00;99.90;;;;;;10472416;28;20269;-73
2023/01/09 14:00:35;;;;;;;3.17;0.80;;;8.90;99.90;;;;;;10461156;28;20553;-72
2023/01/09 14:05:35;;;;;;;1.60;0.80;;;8.90;99.90;;;;;;10449743;28;20262;-73
2023/01/09 14:10:45;;;;;;;1.20;0.70;;;8.80;99.90;;;;;;10479928;28;20673;-73
2023/01/09 14:15:48;;;;;;;1.73;0.60;;;8.70;99.90;;;;;;10449516;28;20457;-74
2023/01/09 14:20:56;;;;;;;2.20;0.90;;;8.70;99.90;;;;;;10469119;28;20273;-72
2023/01/09 14:25:57;;;;;;;2.23;1.13;;;8.70;99.90;;;;;;10457086;28;20277;-73
2023/01/09 14:30:57;;;;;;;1.57;0.90;;;8.70;99.90;;;;;;10455497;28;20640;-73
2023/01/09 14:36:20;;;;;;;0.70;0.70;;;8.70;99.90;;;;;;10449231;28;20226;-73
2023/01/09 14:42:04;;;;;;;2.83;1.00;;;8.60;99.90;;;;;;10476093;28;20277;-73
2023/01/09 14:47:17;;;;;;;2.40;0.97;;;8.60;99.90;;;;;;10475939;28;20600;-73
2023/01/09 14:52:28;;;;;;;2.37;0.90;;;8.50;99.90;;;;;;10481608;28;20215;-73
2023/01/09 14:57:31;;;;;;;1.57;0.70;;;8.60;99.90;;;;;;10465424;28;20237;-73
2023/01/09 15:02:35;;;;;;;2.97;0.80;;;8.70;99.90;;;;;;10469767;28;20241;-73
2023/01/09 15:07:51;;;;;;;2.17;0.60;;;8.70;99.90;;;;;;10461776;28;20856;-73
2023/01/09 15:12:56;;;;;;;3.67;0.90;;;8.70;99.90;;;;;;10458006;28;20696;-75
2023/01/09 15:18:02;;;;;;;0.80;0.50;;;8.60;99.90;;;;;;10482451;28;20234;-75
2023/01/09 15:23:04;;;;;;;1.60;0.70;;;8.60;99.90;;;;;;10484581;28;20248;-75
2023/01/09 15:28:24;;;;;;;1.50;0.60;;;8.60;99.90;;;;;;10481582;28;20282;-75
2023/01/09 15:33:26;;;;;;;0.63;0.50;;;8.50;99.90;;;;;;10474479;28;20228;-75
2023/01/09 15:38:29;;;;;;;1.67;0.70;;;8.50;99.90;;;;;;10498773;28;20221;-74
2023/01/09 15:43:31;;;;;;;1.87;0.63;;;8.50;99.90;;;;;;10493034;28;20815;-75
2023/01/09 15:48:34;;;;;;;1.47;0.77;;;8.50;99.90;;;;;;10494401;28;20708;-72
2023/01/09 15:53:35;;;;;;;2.30;1.00;;;8.40;99.90;;;;;;10470540;28;20309;-74
2023/01/09 15:58:37;;;;;;;2.97;0.90;;;8.40;99.90;;;;;;10465034;28;20221;-73
2023/01/09 16:03:39;;;;;;;2.40;0.93;;;8.30;99.90;;;;;;10462488;28;20824;-74
2023/01/09 16:08:49;;;;;;;2.07;1.03;;;8.30;99.90;;;;;;10474011;28;20222;-74
2023/01/09 16:13:50;;;;;;;3.23;1.07;;;8.30;99.90;;;;;;10456504;28;20309;-74
2023/01/09 16:18:54;;;;;;;4.00;1.53;;;8.20;99.90;;;;;;10464062;28;20727;-75
2023/01/09 16:24:00;;;;;;;2.37;1.13;;;8.20;99.90;;;;;;10483499;28;20399;-70
2023/01/09 16:29:37;;;;;;;3.43;1.20;;;8.30;99.90;;;;;;10476867;28;20218;-76
2023/01/09 16:34:42;;;;;;;2.53;1.20;;;8.30;99.90;;;;;;10477800;28;20207;-74
2023/01/09 16:40:24;;;;;;;1.73;1.00;;;8.30;99.90;;;;;;10467394;28;20228;-75
2023/01/09 16:45:41;;;;;;;5.97;1.83;;;8.30;99.90;;;;;;10448060;28;20226;-74
2023/01/09 16:50:43;;;;;;;5.87;1.40;;;8.20;99.90;;;;;;10456587;28;20275;-74
2023/01/09 16:55:45;;;;;;;2.70;1.20;;;8.20;99.90;;;;;;10464851;28;21034;-73
2023/01/09 17:00:46;;;;;;;2.30;1.00;;;8.10;99.90;;;;;;10482335;28;20242;-74
2023/01/09 17:06:06;;;;;;;3.17;1.33;;;8.10;99.90;;;;;;10459223;28;20716;-72
2023/01/09 17:11:17;;;;;;;2.87;1.20;;;8.00;99.90;;;;;;10480982;28;20617;-73
2023/01/09 17:16:18;;;;;;;1.60;1.00;;;8.00;99.90;;;;;;10466668;28;20238;-74
2023/01/09 17:21:24;;;;;;;2.30;0.80;;;8.00;99.90;;;;;;10480273;28;20221;-74
2023/01/09 17:31:44;;;;;;;0.80;0.70;;;7.90;99.90;;;;;;10469223;28;20221;-74
2023/01/09 17:36:45;;;;;;;1.67;0.73;;;7.90;99.90;;;;;;10490791;28;20246;-74
2023/01/09 17:41:45;;;;;;;2.40;0.70;;;7.90;99.90;;;;;;10479482;28;20314;-73
2023/01/09 17:46:46;;;;;;;1.73;0.60;;;7.90;99.90;;;;;;10473239;28;20746;-74
2023/01/09 17:51:47;;;;;;;2.10;0.50;;;7.90;99.90;;;;;;10464960;28;20271;-74
2023/01/09 17:56:49;;;;;;;2.40;0.60;;;7.80;99.90;;;;;;10482070;28;20310;-74
2023/01/09 18:01:50;;;;;;;0.90;0.70;;;7.80;99.90;;;;;;10462553;28;20232;-75
2023/01/09 18:06:53;;;;;;;2.07;0.53;;;7.80;99.90;;;;;;10467028;28;20238;-73
2023/01/09 18:11:53;;;;;;;1.07;0.50;;;7.70;99.90;;;;;;10475129;28;20207;-74
2023/01/09 18:16:54;;;;;;;1.53;0.40;;;7.60;99.90;;;;;;10472196;28;20236;-74
2023/01/09 18:21:57;;;;;;;0.43;0.40;;;7.60;99.90;;;;;;10465975;28;20225;-74
2023/01/09 18:26:57;;;;;;;4.13;0.80;;;7.60;99.90;;;;;;10465616;28;20297;-74
2023/01/09 18:31:58;;;;;;;3.63;0.80;;;7.60;99.90;;;;;;10456942;28;20302;-73
2023/01/09 18:37:01;;;;;;;4.00;0.70;;;7.60;99.90;;;;;;10470584;28;20321;-74
2023/01/09 18:42:02;;;;;;;3.30;0.60;;;7.50;99.90;;;;;;10453706;28;20453;-73
2023/01/09 18:47:03;;;;;;;2.30;0.60;;;7.50;99.90;;;;;;10462694;28;20224;-75
2023/01/09 18:52:04;;;;;;;1.40;0.80;;;7.40;99.90;;;;;;10465906;28;20291;-76
2023/01/09 18:57:04;;;;;;;1.30;0.70;;;7.40;99.90;;;;;;10470270;28;20299;-71
2023/01/09 19:02:23;;;;;;;2.00;0.80;;;7.30;99.90;;;;;;10474755;28;20693;-72
2023/01/09 19:07:24;;;;;;;5.47;0.83;;;7.30;99.90;;;;;;10482823;28;20768;-73
2023/01/09 19:12:24;;;;;;;2.30;0.70;;;7.30;99.90;;;;;;10493947;28;20226;-75
2023/01/09 19:17:25;;;;;;;1.87;0.80;;;7.20;99.90;;;;;;10476248;28;20284;-72
2023/01/09 19:22:25;;;;;;;2.63;0.90;;;7.20;99.90;;;;;;10445759;28;20224;-74
2023/01/09 19:27:29;;;;;;;1.87;0.80;;;7.10;99.90;;;;;;10465150;28;20223;-75
2023/01/09 19:32:30;;;;;;;5.20;1.50;;;7.10;99.90;;;;;;10479905;28;20277;-76
2023/01/09 19:37:31;;;;;;;1.70;0.80;;;7.00;99.90;;;;;;10470207;28;20762;-75
2023/01/09 19:42:31;;;;;;;1.40;1.17;;;7.00;99.90;;;;;;10486893;28;20224;-74
2023/01/09 19:47:36;;;;;;;5.17;1.47;;;6.90;99.90;;;;;;10451583;28;20247;-74
2023/01/09 19:52:36;;;;;;;4.27;1.43;;;6.80;99.90;;;;;;10453786;28;20209;-73
2023/01/09 19:57:37;;;;;;;3.33;0.90;;;6.80;99.90;;;;;;10483912;28;20234;-74
2023/01/09 20:02:39;;;;;;;3.67;1.20;;;6.90;99.90;;;;;;10468805;28;20293;-75
2023/01/09 20:07:40;;;;;;;4.67;1.00;;;7.00;99.90;;;;;;10472214;28;20232;-73
2023/01/09 20:12:41;;;;;;;6.00;1.20;;;6.90;99.90;;;;;;10464538;28;20257;-73
2023/01/09 20:17:41;;;;;;;2.87;1.07;;;6.80;99.90;;;;;;10471680;28;20255;-77
2023/01/09 20:22:42;;;;;;;3.07;0.90;;;6.70;99.90;;;;;;10481489;28;20246;-80
2023/01/09 20:27:42;;;;;;;2.90;0.93;;;6.70;99.90;;;;;;10469946;28;20321;-77
2023/01/09 20:32:48;;;;;;;3.00;1.10;;;6.70;99.90;;;;;;10483059;28;20345;-72
2023/01/09 20:37:50;;;;;;;1.93;1.00;;;6.70;99.90;;;;;;10464765;28;20354;-74
2023/01/09 20:42:51;;;;;;;2.10;0.83;;;6.80;99.90;;;;;;10451537;28;20753;-74
2023/01/09 20:47:53;;;;;;;3.93;0.90;;;6.90;99.90;;;;;;10496934;28;20231;-76
2023/01/09 20:52:53;;;;;;;2.57;0.93;;;6.90;99.90;;;;;;10480543;28;20216;-74
2023/01/09 20:57:54;;;;;;;1.40;0.80;;;7.00;99.90;;;;;;10484320;28;20627;-74
2023/01/09 21:02:54;;;;;;;3.20;0.90;;;7.00;99.90;;;;;;10481516;28;20255;-74
2023/01/09 21:07:55;;;;;;;2.23;1.00;;;6.90;99.90;;;;;;10471490;28;20247;-74
2023/01/09 21:12:55;;;;;;;3.03;1.10;;;6.80;99.90;;;;;;10469684;28;20706;-70
2023/01/09 21:17:56;;;;;;;2.37;1.20;;;6.80;99.90;;;;;;10464881;28;20219;-75
2023/01/09 21:23:00;;;;;;;4.17;1.07;;;6.80;99.90;;;;;;10471131;28;20897;-73
2023/01/09 21:28:00;;;;;;;1.13;0.80;;;6.80;99.90;;;;;;10470421;28;20231;-75
2023/01/09 21:33:01;;;;;;;1.27;0.73;;;6.90;99.90;;;;;;10491125;28;20200;-76
2023/01/09 21:38:01;;;;;;;1.27;0.90;;;7.00;99.90;;;;;;10494182;28;20215;-77
2023/01/09 21:48:45;;;;;;;2.53;1.20;;;7.00;99.90;;;;;;10473424;28;20225;-75
2023/01/09 21:53:50;;;;;;;4.30;1.47;;;7.00;99.90;;;;;;10487795;28;20345;-73
2023/01/09 21:58:51;;;;;;;1.93;1.10;;;7.10;99.90;;;;;;10464758;28;20944;-71
2023/01/09 22:04:01;;;;;;;5.23;1.20;;;7.10;99.90;;;;;;10478487;28;20249;-71
2023/01/09 22:09:02;;;;;;;2.03;1.03;;;7.10;99.90;;;;;;10466309;28;20231;-72
2023/01/09 22:14:03;;;;;;;2.67;1.20;;;7.10;99.90;;;;;;10481354;28;20382;-72
2023/01/09 22:19:06;;;;;;;1.70;1.30;;;7.10;99.90;;;;;;10467181;28;20594;-72
2023/01/09 22:24:11;;;;;;;4.30;1.60;;;7.20;99.90;;;;;;10472132;28;20249;-72
2023/01/09 22:29:12;;;;;;;3.90;1.23;;;7.20;99.90;;;;;;10464214;28;20234;-72
2023/01/09 22:34:17;;;;;;;4.73;1.40;;;7.20;99.90;;;;;;10477493;28;20266;-71
2023/01/09 22:39:18;;;;;;;2.00;1.43;;;7.20;99.90;;;;;;10459761;28;20224;-73
2023/01/09 22:44:19;;;;;;;1.83;1.27;;;7.20;99.90;;;;;;10448723;28;20271;-73
2023/01/09 22:49:21;;;;;;;2.33;1.17;;;7.10;99.90;;;;;;10465593;28;20228;-74
2023/01/09 22:54:21;;;;;;;2.67;1.50;;;7.00;99.90;;;;;;10478365;28;20322;-73
2023/01/09 22:59:23;;;;;;;2.87;1.07;;;6.90;99.90;;;;;;10490729;28;20665;-74
2023/01/09 23:04:23;;;;;;;2.63;1.37;;;6.90;99.90;;;;;;10488067;28;20212;-74
2023/01/09 23:09:25;;;;;;;2.47;1.50;;;6.90;99.90;;;;;;10455369;28;20319;-71
2023/01/09 23:14:26;;;;;;;3.00;1.60;;;6.80;99.90;;;;;;10467198;28;20318;-72
2023/01/09 23:19:29;;;;;;;2.17;1.13;;;6.80;99.90;;;;;;10470190;28;21174;-72
2023/01/09 23:24:30;;;;;;;3.20;1.50;;;6.80;99.90;;;;;;10453935;28;20838;-74
2023/01/09 23:29:31;;;;;;;3.17;1.47;;;7.00;99.90;;;;;;10468380;28;20232;-74
2023/01/09 23:34:32;;;;;;;3.10;1.80;;;7.00;99.90;;;;;;10492132;28;20223;-73
2023/01/09 23:39:33;;;;;;;3.27;1.10;;;7.10;99.90;;;;;;10473806;28;20223;-70
2023/01/09 23:44:35;;;;;;;3.10;1.27;;;7.20;99.90;;;;;;10461186;28;20211;-71
2023/01/09 23:49:35;;;;;;;2.03;1.07;;;7.20;99.90;;;;;;10491359;28;20233;-72
2023/01/09 23:54:36;;;;;;;2.93;1.27;;;7.20;99.90;;;;;;10471421;28;20649;-71
2023/01/09 23:59:36;;;;;;;2.60;1.30;;;7.30;99.90;;;;;;10480763;28;20215;-71
